sensor_id;sensor_type;location;lat;lon;timestamp;temperature;humidity
34522;DHT22;25561;48.888;8.736;2022-08-01T05:31:32;23.80;99.90
34522;DHT22;25561;48.888;8.736;2022-08-01T05:34:37;23.50;99.90
34522;DHT22;25561;48.888;8.736;2022-08-01T05:37:39;23.90;99.90
34522;DHT22;25561;48.888;8.736;2022-08-01T05:40:40;23.60;99.90
34522;DHT22;25561;48.888;8.736;2022-08-01T05:43:42;23.50;99.90
34522;DHT22;25561;48.888;8.736;2022-08-01T05:46:44;23.80;99.90
34522;DHT22;25561;48.888;8.736;2022-08-01T05:49:46;24.00;99.90
34522;DHT22;25561;48.888;8.736;2022-08-01T05:52:48;25.00;99.90
34522;DHT22;25561;48.888;8.736;2022-08-01T05:55:50;26.70;99.90
34522;DHT22;25561;48.888;8.736;2022-08-01T05:58:53;27.80;99.90
34522;DHT22;25561;48.888;8.736;2022-08-01T06:01:55;28.00;99.90
34522;DHT22;25561;48.888;8.736;2022-08-01T06:04:57;27.40;99.90
34522;DHT22;25561;48.888;8.736;2022-08-01T06:07:58;25.80;99.90
34522;DHT22;25561;48.888;8.736;2022-08-01T06:11:00;25.80;99.90
34522;DHT22;25561;48.888;8.736;2022-08-01T06:50:06;25.70;99.90
34522;DHT22;25561;48.888;8.736;2022-08-01T06:53:11;27.20;99.90
34522;DHT22;25561;48.888;8.736;2022-08-01T06:56:12;28.00;99.90
34522;DHT22;25561;48.888;8.736;2022-08-01T06:59:14;29.10;99.90
34522;DHT22;25561;48.888;8.736;2022-08-01T07:02:16;28.30;99.90
34522;DHT22;25561;48.888;8.736;2022-08-01T07:05:18;27.30;99.90
34522;DHT22;25561;48.888;8.736;2022-08-01T07:08:20;27.60;99.90
34522;DHT22;25561;48.888;8.736;2022-08-01T07:11:23;27.90;99.90
34522;DHT22;25561;48.888;8.736;2022-08-01T07:14:25;29.40;99.90
34522;DHT22;25561;48.888;8.736;2022-08-01T07:17:27;29.60;99.90
34522;DHT22;25561;48.888;8.736;2022-08-01T07:20:29;29.90;99.90
34522;DHT22;25561;48.888;8.736;2022-08-01T07:23:36;31.00;99.90
34522;DHT22;25561;48.888;8.736;2022-08-01T07:26:47;30.80;99.90
34522;DHT22;25561;48.888;8.736;2022-08-01T07:29:54;32.30;98.80
34522;DHT22;25561;48.888;8.736;2022-08-01T07:32:57;31.80;98.40
34522;DHT22;25561;48.888;8.736;2022-08-01T07:35:59;33.90;95.20
34522;DHT22;25561;48.888;8.736;2022-08-01T07:39:01;33.90;93.20
34522;DHT22;25561;48.888;8.736;2022-08-01T07:42:03;31.60;95.00
34522;DHT22;25561;48.888;8.736;2022-08-01T07:45:13;31.00;96.10
34522;DHT22;25561;48.888;8.736;2022-08-01T07:48:16;31.40;95.90
34522;DHT22;25561;48.888;8.736;2022-08-01T07:51:18;31.70;95.80
34522;DHT22;25561;48.888;8.736;2022-08-01T07:54:20;33.90;93.10
34522;DHT22;25561;48.888;8.736;2022-08-01T07:57:34;35.40;90.60
34522;DHT22;25561;48.888;8.736;2022-08-01T08:00:36;34.70;90.20
34522;DHT22;25561;48.888;8.736;2022-08-01T08:03:38;33.70;90.90
34522;DHT22;25561;48.888;8.736;2022-08-01T08:06:39;33.60;91.20
34522;DHT22;25561;48.888;8.736;2022-08-01T08:09:42;34.10;89.70
34522;DHT22;25561;48.888;8.736;2022-08-01T08:12:44;32.70;91.20
34522;DHT22;25561;48.888;8.736;2022-08-01T08:15:47;32.80;91.80
34522;DHT22;25561;48.888;8.736;2022-08-01T08:18:49;33.40;90.80
34522;DHT22;25561;48.888;8.736;2022-08-01T08:21:51;34.30;88.80
34522;DHT22;25561;48.888;8.736;2022-08-01T08:24:53;34.40;86.80
34522;DHT22;25561;48.888;8.736;2022-08-01T08:28:01;33.60;88.40
34522;DHT22;25561;48.888;8.736;2022-08-01T08:31:03;31.90;91.10
34522;DHT22;25561;48.888;8.736;2022-08-01T08:34:05;31.10;92.70
34522;DHT22;25561;48.888;8.736;2022-08-01T08:37:06;30.80;93.30
34522;DHT22;25561;48.888;8.736;2022-08-01T08:40:10;30.90;93.40
34522;DHT22;25561;48.888;8.736;2022-08-01T08:43:12;31.50;93.30
34522;DHT22;25561;48.888;8.736;2022-08-01T08:46:14;32.00;92.30
34522;DHT22;25561;48.888;8.736;2022-08-01T08:49:21;32.60;91.80
34522;DHT22;25561;48.888;8.736;2022-08-01T08:52:24;31.80;92.20
34522;DHT22;25561;48.888;8.736;2022-08-01T08:55:26;30.80;94.10
34522;DHT22;25561;48.888;8.736;2022-08-01T08:58:30;31.50;92.90
34522;DHT22;25561;48.888;8.736;2022-08-01T09:01:35;31.90;92.20
34522;DHT22;25561;48.888;8.736;2022-08-01T09:04:38;32.40;92.30
34522;DHT22;25561;48.888;8.736;2022-08-01T09:07:41;32.70;90.90
34522;DHT22;25561;48.888;8.736;2022-08-01T09:10:43;33.10;90.80
34522;DHT22;25561;48.888;8.736;2022-08-01T09:14:07;34.20;88.40
34522;DHT22;25561;48.888;8.736;2022-08-01T09:17:10;34.00;87.50
34522;DHT22;25561;48.888;8.736;2022-08-01T09:20:23;33.60;88.20
34522;DHT22;25561;48.888;8.736;2022-08-01T09:23:33;32.20;90.40
34522;DHT22;25561;48.888;8.736;2022-08-01T09:26:36;32.40;90.50
34522;DHT22;25561;48.888;8.736;2022-08-01T09:29:37;32.50;90.70
34522;DHT22;25561;48.888;8.736;2022-08-01T09:32:58;32.40;90.10
34522;DHT22;25561;48.888;8.736;2022-08-01T09:36:07;32.80;90.10
34522;DHT22;25561;48.888;8.736;2022-08-01T09:39:15;32.70;90.00
34522;DHT22;25561;48.888;8.736;2022-08-01T09:42:22;32.70;90.70
34522;DHT22;25561;48.888;8.736;2022-08-01T09:45:33;33.00;89.90
34522;DHT22;25561;48.888;8.736;2022-08-01T09:49:04;34.20;88.20
34522;DHT22;25561;48.888;8.736;2022-08-01T09:52:14;34.90;85.10
34522;DHT22;25561;48.888;8.736;2022-08-01T09:55:21;35.90;81.60
34522;DHT22;25561;48.888;8.736;2022-08-01T09:58:23;36.70;79.30
34522;DHT22;25561;48.888;8.736;2022-08-01T10:01:26;37.10;78.40
34522;DHT22;25561;48.888;8.736;2022-08-01T10:04:46;36.00;78.00
34522;DHT22;25561;48.888;8.736;2022-08-01T10:08:01;36.80;76.90
34522;DHT22;25561;48.888;8.736;2022-08-01T10:11:10;36.40;77.10
34522;DHT22;25561;48.888;8.736;2022-08-01T10:14:12;33.20;82.30
34522;DHT22;25561;48.888;8.736;2022-08-01T10:17:19;32.20;84.80
34522;DHT22;25561;48.888;8.736;2022-08-01T10:20:27;31.70;87.10
34522;DHT22;25561;48.888;8.736;2022-08-01T10:23:35;31.90;87.80
34522;DHT22;25561;48.888;8.736;2022-08-01T10:26:43;32.80;86.80
34522;DHT22;25561;48.888;8.736;2022-08-01T10:29:50;31.50;88.00
34522;DHT22;25561;48.888;8.736;2022-08-01T10:33:10;31.00;89.90
34522;DHT22;25561;48.888;8.736;2022-08-01T10:36:19;32.70;87.00
34522;DHT22;25561;48.888;8.736;2022-08-01T10:39:23;32.30;86.90
34522;DHT22;25561;48.888;8.736;2022-08-01T10:42:26;34.10;83.10
34522;DHT22;25561;48.888;8.736;2022-08-01T10:45:29;33.30;83.70
34522;DHT22;25561;48.888;8.736;2022-08-01T10:48:55;33.30;84.30
34522;DHT22;25561;48.888;8.736;2022-08-01T10:51:59;33.20;86.10
34522;DHT22;25561;48.888;8.736;2022-08-01T10:55:03;32.60;85.40
34522;DHT22;25561;48.888;8.736;2022-08-01T10:58:08;32.90;85.50
34522;DHT22;25561;48.888;8.736;2022-08-01T11:01:24;34.90;83.70
34522;DHT22;25561;48.888;8.736;2022-08-01T11:04:44;34.60;81.80
34522;DHT22;25561;48.888;8.736;2022-08-01T11:07:54;32.80;83.00
34522;DHT22;25561;48.888;8.736;2022-08-01T11:11:01;32.60;85.30
34522;DHT22;25561;48.888;8.736;2022-08-01T11:14:05;32.00;86.00
34522;DHT22;25561;48.888;8.736;2022-08-01T11:17:34;31.50;88.70
34522;DHT22;25561;48.888;8.736;2022-08-01T11:20:55;30.80;90.00
34522;DHT22;25561;48.888;8.736;2022-08-01T11:31:25;30.10;91.50
34522;DHT22;25561;48.888;8.736;2022-08-01T11:34:55;31.70;89.30
34522;DHT22;25561;48.888;8.736;2022-08-01T11:37:57;33.20;86.30
34522;DHT22;25561;48.888;8.736;2022-08-01T11:41:22;34.70;82.10
34522;DHT22;25561;48.888;8.736;2022-08-01T11:44:54;35.10;80.60
34522;DHT22;25561;48.888;8.736;2022-08-01T11:47:58;34.70;79.30
34522;DHT22;25561;48.888;8.736;2022-08-01T11:51:00;33.70;80.50
34522;DHT22;25561;48.888;8.736;2022-08-01T11:54:02;34.00;79.80
34522;DHT22;25561;48.888;8.736;2022-08-01T11:57:09;31.60;81.80
34522;DHT22;25561;48.888;8.736;2022-08-01T12:00:14;32.10;83.40
34522;DHT22;25561;48.888;8.736;2022-08-01T12:03:27;32.20;84.00
34522;DHT22;25561;48.888;8.736;2022-08-01T12:06:34;31.30;86.20
34522;DHT22;25561;48.888;8.736;2022-08-01T12:09:36;30.00;90.30
34522;DHT22;25561;48.888;8.736;2022-08-01T12:12:43;29.70;91.50
34522;DHT22;25561;48.888;8.736;2022-08-01T12:15:45;29.70;90.50
34522;DHT22;25561;48.888;8.736;2022-08-01T12:18:48;29.90;90.60
34522;DHT22;25561;48.888;8.736;2022-08-01T12:22:12;29.30;91.10
34522;DHT22;25561;48.888;8.736;2022-08-01T12:25:16;29.20;91.50
34522;DHT22;25561;48.888;8.736;2022-08-01T12:28:18;29.20;92.20
34522;DHT22;25561;48.888;8.736;2022-08-01T12:31:31;29.60;92.10
34522;DHT22;25561;48.888;8.736;2022-08-01T12:34:32;29.90;91.30
34522;DHT22;25561;48.888;8.736;2022-08-01T12:37:38;29.50;91.40
34522;DHT22;25561;48.888;8.736;2022-08-01T12:40:42;29.50;91.80
34522;DHT22;25561;48.888;8.736;2022-08-01T12:43:48;29.10;91.90
34522;DHT22;25561;48.888;8.736;2022-08-01T12:46:50;29.60;91.50
34522;DHT22;25561;48.888;8.736;2022-08-01T12:49:52;30.10;91.10
34522;DHT22;25561;48.888;8.736;2022-08-01T12:52:55;29.70;89.10
34522;DHT22;25561;48.888;8.736;2022-08-01T12:55:57;30.30;89.40
34522;DHT22;25561;48.888;8.736;2022-08-01T12:59:00;30.90;86.30
34522;DHT22;25561;48.888;8.736;2022-08-01T13:02:08;29.50;88.90
34522;DHT22;25561;48.888;8.736;2022-08-01T13:05:11;29.60;91.00
34522;DHT22;25561;48.888;8.736;2022-08-01T13:08:14;29.50;91.20
34522;DHT22;25561;48.888;8.736;2022-08-01T13:11:16;29.60;91.10
34522;DHT22;25561;48.888;8.736;2022-08-01T13:14:28;30.00;91.00
34522;DHT22;25561;48.888;8.736;2022-08-01T13:17:32;29.90;90.70
34522;DHT22;25561;48.888;8.736;2022-08-01T13:20:34;29.80;90.60
34522;DHT22;25561;48.888;8.736;2022-08-01T13:23:38;30.00;90.20
34522;DHT22;25561;48.888;8.736;2022-08-01T13:27:01;29.50;90.50
34522;DHT22;25561;48.888;8.736;2022-08-01T13:30:21;29.80;90.80
34522;DHT22;25561;48.888;8.736;2022-08-01T13:33:25;29.90;90.70
34522;DHT22;25561;48.888;8.736;2022-08-01T13:36:31;30.00;90.20
34522;DHT22;25561;48.888;8.736;2022-08-01T13:39:33;30.10;89.90
34522;DHT22;25561;48.888;8.736;2022-08-01T13:42:42;30.00;90.10
34522;DHT22;25561;48.888;8.736;2022-08-01T13:45:44;29.70;90.00
34522;DHT22;25561;48.888;8.736;2022-08-01T13:48:46;29.50;90.50
34522;DHT22;25561;48.888;8.736;2022-08-01T13:51:51;30.00;90.20
34522;DHT22;25561;48.888;8.736;2022-08-01T13:54:52;30.10;88.40
34522;DHT22;25561;48.888;8.736;2022-08-01T13:57:54;29.30;90.10
34522;DHT22;25561;48.888;8.736;2022-08-01T14:00:56;29.60;90.20
34522;DHT22;25561;48.888;8.736;2022-08-01T14:03:58;30.20;89.50
34522;DHT22;25561;48.888;8.736;2022-08-01T14:07:00;30.50;88.60
34522;DHT22;25561;48.888;8.736;2022-08-01T14:10:10;30.30;89.40
34522;DHT22;25561;48.888;8.736;2022-08-01T14:13:20;29.50;88.50
34522;DHT22;25561;48.888;8.736;2022-08-01T14:16:24;29.70;89.30
34522;DHT22;25561;48.888;8.736;2022-08-01T14:19:26;30.30;89.00
34522;DHT22;25561;48.888;8.736;2022-08-01T14:22:40;30.00;88.90
34522;DHT22;25561;48.888;8.736;2022-08-01T14:25:43;30.40;87.10
34522;DHT22;25561;48.888;8.736;2022-08-01T14:29:04;30.20;87.60
34522;DHT22;25561;48.888;8.736;2022-08-01T14:32:06;30.10;87.00
34522;DHT22;25561;48.888;8.736;2022-08-01T14:35:08;30.20;87.00
34522;DHT22;25561;48.888;8.736;2022-08-01T14:38:10;30.20;86.00
34522;DHT22;25561;48.888;8.736;2022-08-01T14:41:22;29.90;86.70
34522;DHT22;25561;48.888;8.736;2022-08-01T14:44:24;30.50;86.20
34522;DHT22;25561;48.888;8.736;2022-08-01T14:47:28;30.70;86.30
34522;DHT22;25561;48.888;8.736;2022-08-01T14:50:30;30.80;83.90
34522;DHT22;25561;48.888;8.736;2022-08-01T14:53:33;31.00;83.50
34522;DHT22;25561;48.888;8.736;2022-08-01T14:56:36;30.60;83.80
34522;DHT22;25561;48.888;8.736;2022-08-01T14:59:38;31.00;84.00
34522;DHT22;25561;48.888;8.736;2022-08-01T15:02:40;30.70;84.80
34522;DHT22;25561;48.888;8.736;2022-08-01T15:05:42;29.70;86.50
34522;DHT22;25561;48.888;8.736;2022-08-01T15:08:44;29.20;88.70
34522;DHT22;25561;48.888;8.736;2022-08-01T15:11:46;29.20;88.90
34522;DHT22;25561;48.888;8.736;2022-08-01T15:14:48;28.90;88.90
34522;DHT22;25561;48.888;8.736;2022-08-01T15:17:50;29.00;88.90
34522;DHT22;25561;48.888;8.736;2022-08-01T15:20:54;28.90;89.40
34522;DHT22;25561;48.888;8.736;2022-08-01T15:23:56;29.10;89.70
34522;DHT22;25561;48.888;8.736;2022-08-01T15:26:58;29.10;88.70
34522;DHT22;25561;48.888;8.736;2022-08-01T15:29:59;28.60;90.20
34522;DHT22;25561;48.888;8.736;2022-08-01T15:33:01;28.70;90.20
34522;DHT22;25561;48.888;8.736;2022-08-01T15:36:03;28.80;90.20
34522;DHT22;25561;48.888;8.736;2022-08-01T15:39:06;29.00;89.80
34522;DHT22;25561;48.888;8.736;2022-08-01T15:42:11;29.10;89.60
34522;DHT22;25561;48.888;8.736;2022-08-01T15:45:20;29.40;89.50
34522;DHT22;25561;48.888;8.736;2022-08-01T15:48:42;29.20;89.40
34522;DHT22;25561;48.888;8.736;2022-08-01T15:51:44;28.90;90.00
34522;DHT22;25561;48.888;8.736;2022-08-01T15:54:46;28.60;90.60
34522;DHT22;25561;48.888;8.736;2022-08-01T15:57:48;28.90;90.80
